Time;durP1;ratioP1;P1;durP2;ratioP2;P2;SDS_P1;SDS_P2;PMS_P1;PMS_P2;Temp;Humidity;BMP_temperature;BMP_pressure;BME280_temperature;BME280_humidity;BME280_pressure;Samples;Min_cycle;Max_cycle;Signal;HPM_P1;HPM_P2
2024/01/16 00:02:19;;;;;;;11.97;2.03;;;1.50;99.90;;;;;;4911317;29;20505;-92
2024/01/16 00:04:59;;;;;;;7.97;1.80;;;-0.80;99.90;;;;;;4897959;29;20045;-92
2024/01/16 00:07:39;;;;;;;10.70;2.23;;;-0.90;99.90;;;;;;4898262;29;20449;-92
2024/01/16 00:10:09;;;;;;;10.33;2.27;;;-0.90;99.90;;;;;;4898394;29;20053;-93
2024/01/16 00:13:00;;;;;;;10.90;2.20;;;0.20;99.90;;;;;;4898091;29;20060;-95
2024/01/16 00:15:35;;;;;;;19.03;3.00;;;0.00;99.90;;;;;;4897502;29;20055;-93
2024/01/16 00:18:01;;;;;;;11.10;2.50;;;-1.00;99.90;;;;;;4899657;29;20052;-95
2024/01/16 00:20:42;;;;;;;9.97;2.10;;;-0.90;99.90;;;;;;4904117;29;20144;-94
2024/01/16 00:23:17;;;;;;;11.07;2.10;;;-0.80;99.90;;;;;;4900618;29;20048;-93
2024/01/16 00:26:00;;;;;;;12.20;2.43;;;0.30;99.90;;;;;;4898473;29;20076;-95
2024/01/16 00:28:43;;;;;;;12.57;2.40;;;-0.70;99.90;;;;;;4897583;29;20060;-94
2024/01/16 00:31:08;;;;;;;12.47;2.50;;;-0.50;99.90;;;;;;4882077;29;20036;-94
2024/01/16 00:33:40;;;;;;;12.60;2.30;;;0.80;99.90;;;;;;4897518;29;20508;-95
2024/01/16 00:36:06;;;;;;;10.53;1.90;;;-1.10;99.90;;;;;;4897685;29;20040;-95
2024/01/16 00:38:35;;;;;;;9.97;2.03;;;-0.90;99.90;;;;;;4897471;29;20131;-94
2024/01/16 00:41:01;;;;;;;11.30;2.07;;;1.00;99.90;;;;;;4897362;29;20060;-94
2024/01/16 00:43:36;;;;;;;10.67;1.90;;;-1.20;99.90;;;;;;4897088;29;20505;-94
2024/01/16 00:46:15;;;;;;;9.33;1.93;;;-1.00;99.90;;;;;;4898295;29;20548;-95
2024/01/16 00:48:53;;;;;;;13.17;1.97;;;-1.80;99.90;;;;;;4898004;29;20059;-95
2024/01/16 00:51:31;;;;;;;13.97;2.57;;;-0.50;99.90;;;;;;4897573;29;20044;-95
2024/01/16 00:54:15;;;;;;;12.50;1.90;;;0.60;99.90;;;;;;4897736;29;20053;-95
2024/01/16 00:56:47;;;;;;;;;;;-0.60;99.90;;;;;;4898479;29;20041;-96
2024/01/16 00:59:31;;;;;;;9.23;1.83;;;-0.60;99.90;;;;;;4897878;29;19971;-96
2024/01/16 01:02:15;;;;;;;;;;;0.40;99.90;;;;;;4898322;29;20494;-96
2024/01/16 01:07:47;;;;;;;12.27;1.97;;;-1.30;99.90;;;;;;4897670;29;20052;-96
2024/01/16 01:12:44;;;;;;;11.13;1.97;;;-1.00;99.90;;;;;;4957158;23;20067;-96
2024/01/16 01:15:10;;;;;;;11.10;2.00;;;0.30;99.90;;;;;;4935427;29;20050;-95
2024/01/16 01:17:35;;;;;;;11.53;1.90;;;-1.10;99.90;;;;;;4919594;29;20456;-96
2024/01/16 01:20:01;;;;;;;11.27;1.90;;;-1.10;99.90;;;;;;4919988;29;20550;-96
2024/01/16 01:22:27;;;;;;;15.23;2.73;;;-1.10;99.90;;;;;;4920084;29;20484;-95
2024/01/16 01:24:53;;;;;;;9.00;1.70;;;-1.10;99.90;;;;;;4919910;29;20044;-96
2024/01/16 01:27:19;;;;;;;7.50;1.73;;;-1.10;99.90;;;;;;4924866;29;20133;-95
2024/01/16 01:29:45;;;;;;;9.17;1.93;;;-1.10;99.90;;;;;;4928500;29;20416;-95
2024/01/16 01:32:12;;;;;;;7.47;1.80;;;-1.10;99.90;;;;;;4920041;29;20047;-95
2024/01/16 01:34:41;;;;;;;8.30;1.87;;;-1.20;99.90;;;;;;4919776;29;20571;-96
2024/01/16 01:37:07;;;;;;;10.47;2.00;;;-1.10;99.90;;;;;;4919451;29;20074;-96
2024/01/16 01:39:32;;;;;;;10.07;1.90;;;-1.10;99.90;;;;;;4919696;29;20055;-96
2024/01/16 01:41:58;;;;;;;10.70;1.83;;;-1.10;99.90;;;;;;4920813;29;20054;-95
2024/01/16 01:44:24;;;;;;;7.77;1.60;;;-1.10;99.90;;;;;;4919969;29;20051;-94
2024/01/16 01:46:51;;;;;;;10.53;1.77;;;-1.10;99.90;;;;;;4919939;29;20048;-95
2024/01/16 01:49:16;;;;;;;12.53;2.53;;;-1.00;99.90;;;;;;4919218;29;20075;-96
2024/01/16 01:51:43;;;;;;;11.93;2.10;;;-0.50;99.90;;;;;;4920769;29;20047;-95
2024/01/16 01:54:11;;;;;;;8.73;1.77;;;-0.90;99.90;;;;;;4944294;29;20028;-94
2024/01/16 01:56:37;;;;;;;11.40;1.70;;;-0.90;99.90;;;;;;4936513;29;20099;-94
2024/01/16 01:59:03;;;;;;;11.27;1.80;;;-0.80;99.90;;;;;;4927162;29;20508;-95
2024/01/16 02:01:31;;;;;;;10.83;1.83;;;-0.70;99.90;;;;;;4924869;29;20551;-94
2024/01/16 02:03:59;;;;;;;9.80;1.60;;;-0.70;99.90;;;;;;4929306;29;20048;-95
2024/01/16 02:06:28;;;;;;;7.83;1.70;;;-0.70;99.90;;;;;;4924028;29;20071;-96
2024/01/16 02:08:54;;;;;;;8.17;1.90;;;-0.80;99.90;;;;;;4923059;29;20081;-96
2024/01/16 02:11:19;;;;;;;11.17;2.30;;;-0.80;99.90;;;;;;4922047;29;20412;-96
2024/01/16 02:13:46;;;;;;;7.30;1.50;;;-0.90;99.90;;;;;;4923125;29;20048;-94
2024/01/16 02:16:24;;;;;;;13.70;2.43;;;-0.90;99.90;;;;;;4922878;29;20051;-95
2024/01/16 02:18:51;;;;;;;5.73;1.33;;;-1.00;99.90;;;;;;4923638;29;20118;-94
2024/01/16 02:21:27;;;;;;;9.90;1.70;;;-1.20;99.90;;;;;;4923280;29;20083;-95
2024/01/16 02:23:53;;;;;;;7.90;1.27;;;-1.20;99.90;;;;;;4923431;29;20047;-95
2024/01/16 02:26:19;;;;;;;10.43;1.87;;;-1.30;99.90;;;;;;4923462;29;20046;-95
2024/01/16 02:28:45;;;;;;;8.20;1.50;;;-1.30;99.90;;;;;;4923668;29;20047;-95
2024/01/16 02:31:11;;;;;;;11.37;1.80;;;-1.40;99.90;;;;;;4923706;29;20140;-95
2024/01/16 02:33:37;;;;;;;8.13;1.50;;;-1.50;99.90;;;;;;4924627;29;20083;-94
2024/01/16 02:36:03;;;;;;;10.20;1.73;;;-1.50;99.90;;;;;;4923938;29;20484;-94
2024/01/16 02:38:28;;;;;;;8.63;1.50;;;-1.50;99.90;;;;;;4924888;29;20497;-93
2024/01/16 02:40:54;;;;;;;9.47;1.80;;;-1.60;99.90;;;;;;4923856;29;20087;-94
2024/01/16 02:43:19;;;;;;;11.17;2.40;;;-1.10;99.90;;;;;;4922624;29;20039;-94
2024/01/16 02:45:45;;;;;;;10.10;1.70;;;-1.70;99.90;;;;;;4923078;29;20135;-94
2024/01/16 02:48:11;;;;;;;7.80;1.80;;;-1.70;99.90;;;;;;4923863;29;20047;-94
2024/01/16 02:50:38;;;;;;;11.27;1.80;;;-1.70;99.90;;;;;;4925128;29;20048;-93
2024/01/16 02:53:04;;;;;;;11.20;1.93;;;-1.50;99.90;;;;;;4926322;29;20044;-93
2024/01/16 02:55:29;;;;;;;9.30;1.50;;;-1.60;99.90;;;;;;4930035;29;20481;-93
2024/01/16 02:57:58;;;;;;;10.73;1.60;;;-1.50;99.90;;;;;;4945015;29;20044;-93
2024/01/16 03:00:23;;;;;;;7.10;1.27;;;-1.30;99.90;;;;;;4929760;29;20074;-93
2024/01/16 03:02:52;;;;;;;6.23;1.33;;;-0.40;99.90;;;;;;4924361;29;20055;-94
2024/01/16 03:05:24;;;;;;;11.57;1.80;;;-0.10;99.90;;;;;;4920171;29;20052;-94
2024/01/16 03:07:56;;;;;;;10.23;2.10;;;-2.30;99.90;;;;;;4903668;29;20044;-93
2024/01/16 03:10:25;;;;;;;11.30;2.43;;;-1.40;99.90;;;;;;4903460;29;20088;-95
2024/01/16 03:13:54;;;;;;;10.33;1.97;;;-0.70;99.90;;;;;;4919308;29;20408;-94
2024/01/16 03:17:26;;;;;;;11.77;2.20;;;-0.50;99.90;;;;;;4903912;29;20059;-93
2024/01/16 03:20:55;;;;;;;10.47;2.60;;;-0.50;99.90;;;;;;4902809;29;20082;-94
2024/01/16 03:24:27;;;;;;;7.50;1.97;;;0.60;99.90;;;;;;4903468;29;20063;-94
2024/01/16 03:27:18;;;;;;;9.37;2.20;;;-0.70;99.90;;;;;;4902832;29;20492;-94
2024/01/16 03:29:48;;;;;;;11.13;1.77;;;-0.70;99.90;;;;;;4902570;29;20091;-94
2024/01/16 03:32:20;;;;;;;10.33;1.57;;;-1.50;99.90;;;;;;4902434;29;20044;-94
2024/01/16 03:34:54;;;;;;;11.57;2.10;;;-1.70;99.90;;;;;;4902523;29;20094;-95
2024/01/16 03:37:29;;;;;;;6.87;1.40;;;-0.90;99.90;;;;;;4922863;23;20060;-94
2024/01/16 03:41:01;;;;;;;13.13;2.10;;;-1.60;99.90;;;;;;4883132;29;20189;-94
2024/01/16 03:44:33;;;;;;;7.47;1.63;;;-0.90;99.90;;;;;;4902679;29;20140;-94
2024/01/16 03:47:50;;;;;;;6.07;1.47;;;0.10;99.90;;;;;;4898813;29;20057;-93
2024/01/16 03:50:21;;;;;;;9.43;1.60;;;-1.00;99.90;;;;;;4882847;29;20056;-93
2024/01/16 03:52:53;;;;;;;10.13;1.70;;;-0.30;99.90;;;;;;4882578;29;20481;-94
2024/01/16 03:55:31;;;;;;;13.00;2.03;;;-1.40;99.90;;;;;;4882117;29;20057;-94
2024/01/16 03:57:57;;;;;;;8.37;1.90;;;-1.80;99.90;;;;;;4968222;23;20092;-94
2024/01/16 04:00:22;;;;;;;9.23;1.60;;;-1.40;99.90;;;;;;4901364;29;20132;-94
2024/01/16 04:02:48;;;;;;;9.00;1.70;;;-1.30;99.90;;;;;;4921273;23;20150;-92
2024/01/16 04:05:17;;;;;;;12.17;3.07;;;-1.40;99.90;;;;;;4936193;29;20056;-94
2024/01/16 04:08:00;;;;;;;8.73;1.80;;;-0.40;99.90;;;;;;4936382;29;20075;-94
2024/01/16 04:10:38;;;;;;;11.73;2.00;;;-0.20;99.90;;;;;;4936557;29;20052;-95
2024/01/16 04:13:12;;;;;;;9.03;1.73;;;-0.10;99.90;;;;;;4936335;29;20126;-94
2024/01/16 04:15:41;;;;;;;8.27;1.67;;;-0.40;99.90;;;;;;4937082;29;20051;-94
2024/01/16 04:18:16;;;;;;;6.03;1.40;;;-0.70;99.90;;;;;;4938947;29;20448;-94
2024/01/16 04:20:57;;;;;;;10.03;1.70;;;0.10;99.90;;;;;;4936457;29;20047;-94
2024/01/16 04:23:38;;;;;;;8.10;1.73;;;-2.20;99.90;;;;;;4936093;29;20051;-93
2024/01/16 04:26:19;;;;;;;9.07;1.77;;;-1.00;99.90;;;;;;4936579;29;20134;-94
2024/01/16 04:29:00;;;;;;;10.40;1.80;;;-1.80;99.90;;;;;;4936275;29;20047;-94
2024/01/16 04:31:41;;;;;;;9.10;1.73;;;-1.80;99.90;;;;;;4936830;28;20040;-94
2024/01/16 04:34:09;;;;;;;9.57;2.10;;;-1.70;99.90;;;;;;4935938;29;20046;-94
2024/01/16 04:36:38;;;;;;;9.80;1.77;;;-1.50;99.90;;;;;;4935860;29;20596;-95
2024/01/16 04:39:10;;;;;;;7.03;1.70;;;-1.50;99.90;;;;;;4936193;29;20050;-96
2024/01/16 04:41:42;;;;;;;8.60;1.90;;;-0.20;99.90;;;;;;4935660;29;20047;-94
2024/01/16 04:44:20;;;;;;;12.20;2.20;;;-1.70;99.90;;;;;;4936293;29;20436;-95
2024/01/16 04:46:49;;;;;;;10.47;1.67;;;-1.60;99.90;;;;;;4936555;29;20392;-94
2024/01/16 04:49:20;;;;;;;10.23;1.77;;;-0.50;99.90;;;;;;4936229;29;20059;-93
2024/01/16 04:51:49;;;;;;;9.37;1.80;;;-1.50;99.90;;;;;;4937342;29;20039;-94
2024/01/16 04:54:23;;;;;;;9.73;1.90;;;-1.60;99.90;;;;;;4935126;29;20081;-94
2024/01/16 04:56:52;;;;;;;7.77;1.90;;;-1.60;99.90;;;;;;4935018;29;20589;-94
2024/01/16 04:59:24;;;;;;;12.23;2.20;;;-0.70;99.90;;;;;;4935784;29;20429;-95
2024/01/16 05:01:50;;;;;;;9.60;2.10;;;-1.60;99.90;;;;;;4924282;29;20103;-94
2024/01/16 05:04:19;;;;;;;10.53;2.10;;;-1.60;99.90;;;;;;4912719;29;20448;-95
2024/01/16 05:06:50;;;;;;;7.20;1.87;;;0.10;99.90;;;;;;4919750;29;20047;-93
2024/01/16 05:09:16;;;;;;;6.37;1.70;;;-1.40;99.90;;;;;;4919752;29;20074;-95
2024/01/16 05:11:51;;;;;;;9.77;1.63;;;1.00;99.90;;;;;;4918949;29;20466;-94
2024/01/16 05:14:17;;;;;;;10.57;2.20;;;-0.70;99.90;;;;;;4919185;29;20055;-94
2024/01/16 05:16:45;;;;;;;6.97;1.67;;;-1.40;99.90;;;;;;4919342;29;20047;-93
2024/01/16 05:19:17;;;;;;;10.57;1.70;;;-1.00;99.90;;;;;;4919398;29;20417;-94
2024/01/16 05:21:49;;;;;;;8.47;1.80;;;-1.00;99.90;;;;;;4920424;29;20130;-95
2024/01/16 05:24:15;;;;;;;6.30;1.47;;;-1.40;99.90;;;;;;4919572;29;20040;-94
2024/01/16 05:26:46;;;;;;;12.40;2.00;;;0.00;99.90;;;;;;4938037;29;20184;-94
2024/01/16 05:29:18;;;;;;;9.77;1.97;;;-1.20;99.90;;;;;;4923250;29;20910;-94
2024/01/16 05:31:43;;;;;;;11.63;1.80;;;-1.50;99.90;;;;;;4923560;29;20071;-95
2024/01/16 05:34:12;;;;;;;13.90;2.20;;;0.40;99.90;;;;;;4923378;29;20051;-94
2024/01/16 05:36:44;;;;;;;12.60;1.80;;;0.00;99.90;;;;;;4923446;29;20051;-95
2024/01/16 05:39:13;;;;;;;9.30;1.90;;;-1.70;99.90;;;;;;4923570;29;20051;-95
2024/01/16 05:41:44;;;;;;;9.13;2.03;;;-1.10;99.90;;;;;;4923507;29;20043;-96
2024/01/16 05:44:22;;;;;;;8.13;1.70;;;-1.60;99.90;;;;;;4923060;29;20071;-94
2024/01/16 05:46:53;;;;;;;10.90;1.80;;;-1.30;99.90;;;;;;4924256;29;20067;-94
2024/01/16 05:49:36;;;;;;;8.07;1.70;;;-2.10;99.90;;;;;;4923517;29;20043;-94
2024/01/16 05:52:05;;;;;;;9.00;1.80;;;-1.00;99.90;;;;;;4923541;29;20071;-94
2024/01/16 05:54:34;;;;;;;10.33;2.30;;;-1.30;99.90;;;;;;4925422;29;20047;-93
2024/01/16 05:57:06;;;;;;;12.50;2.20;;;-1.70;99.90;;;;;;4926434;29;20044;-93
2024/01/16 05:59:37;;;;;;;9.47;1.97;;;0.80;99.90;;;;;;4924064;29;20059;-95
2024/01/16 06:02:07;;;;;;;9.57;2.13;;;-1.30;99.90;;;;;;4921593;29;20051;-95
2024/01/16 06:04:36;;;;;;;8.47;1.90;;;-1.20;99.90;;;;;;4923433;29;20173;-94
2024/01/16 06:07:02;;;;;;;10.57;2.10;;;-1.50;99.90;;;;;;4922470;29;20074;-95
2024/01/16 06:09:28;;;;;;;9.47;1.97;;;-1.40;99.90;;;;;;4922880;29;20055;-94
2024/01/16 06:12:03;;;;;;;10.73;2.20;;;-0.10;99.90;;;;;;4922621;29;20558;-94
2024/01/16 06:14:31;;;;;;;6.87;1.77;;;-1.20;99.90;;;;;;4922160;29;20127;-94
2024/01/16 06:17:00;;;;;;;12.00;2.20;;;-1.40;99.90;;;;;;4922272;29;20488;-94
2024/01/16 06:19:38;;;;;;;8.90;2.23;;;-0.20;99.90;;;;;;4922610;29;20047;-94
2024/01/16 06:22:04;;;;;;;8.67;2.00;;;0.40;99.90;;;;;;4985830;23;20118;-94
2024/01/16 06:24:36;;;;;;;9.60;2.27;;;-1.10;99.90;;;;;;4907055;23;1265295;-94
2024/01/16 06:27:08;;;;;;;11.10;2.27;;;-1.20;99.90;;;;;;4904363;29;20056;-94
2024/01/16 06:29:34;;;;;;;10.83;2.37;;;-1.10;99.90;;;;;;4921975;29;20075;-94
2024/01/16 06:32:00;;;;;;;11.00;2.40;;;-1.10;99.90;;;;;;4904100;29;20044;-95
2024/01/16 06:34:25;;;;;;;7.80;1.90;;;-1.10;99.90;;;;;;4903852;29;20107;-93
2024/01/16 06:37:16;;;;;;;10.60;2.33;;;-1.10;99.90;;;;;;4918104;23;20044;-95
2024/01/16 06:39:43;;;;;;;9.80;1.90;;;0.30;99.90;;;;;;4902083;29;20493;-94
2024/01/16 06:42:18;;;;;;;13.20;2.83;;;-1.40;99.90;;;;;;4902908;29;20048;-95
2024/01/16 06:44:46;;;;;;;11.87;2.30;;;1.20;99.90;;;;;;4903899;29;20048;-94
2024/01/16 06:47:23;;;;;;;12.07;2.73;;;-2.40;99.90;;;;;;4903450;29;20051;-94
2024/01/16 06:49:49;;;;;;;9.40;2.50;;;-1.20;99.90;;;;;;4903089;29;20095;-94
2024/01/16 06:52:21;;;;;;;9.30;2.53;;;-1.40;99.90;;;;;;4903541;29;20141;-95
2024/01/16 06:54:55;;;;;;;8.40;2.67;;;-1.50;99.90;;;;;;4904378;29;20044;-94
2024/01/16 06:57:33;;;;;;;12.40;2.87;;;-1.60;99.90;;;;;;4906960;29;20044;-94
2024/01/16 07:00:17;;;;;;;11.27;2.80;;;-0.80;99.90;;;;;;4915919;29;20052;-95
2024/01/16 07:02:58;;;;;;;12.27;2.90;;;-1.10;99.90;;;;;;4903977;29;20052;-95
2024/01/16 07:05:36;;;;;;;14.53;3.13;;;-1.50;99.90;;;;;;4903237;29;20047;-95
2024/01/16 07:08:10;;;;;;;12.03;2.80;;;-1.40;99.90;;;;;;4903158;29;20151;-95
2024/01/16 07:10:38;;;;;;;11.43;3.20;;;0.20;99.90;;;;;;4902711;29;20075;-95
2024/01/16 07:13:14;;;;;;;11.20;3.43;;;-1.60;99.90;;;;;;4902861;29;20051;-93
2024/01/16 07:15:46;;;;;;;13.07;3.47;;;-1.40;99.90;;;;;;4902402;29;20191;-94
2024/01/16 07:18:18;;;;;;;12.63;3.20;;;-0.90;99.90;;;;;;4902270;29;20671;-95
2024/01/16 07:20:46;;;;;;;12.00;3.17;;;-0.30;99.90;;;;;;4902540;29;20131;-95
2024/01/16 07:23:18;;;;;;;13.03;3.40;;;-0.50;99.90;;;;;;4902614;29;20063;-96
2024/01/16 07:25:49;;;;;;;14.43;3.50;;;-1.50;99.90;;;;;;4902382;29;20051;-94
2024/01/16 07:28:24;;;;;;;10.43;3.30;;;-1.10;99.90;;;;;;4902404;29;20095;-94
2024/01/16 07:31:01;;;;;;;15.97;4.20;;;-1.30;99.90;;;;;;4902347;29;20047;-95
2024/01/16 07:33:30;;;;;;;11.17;3.23;;;-1.20;99.90;;;;;;4903088;29;20052;-95
2024/01/16 07:36:02;;;;;;;12.90;3.77;;;-1.60;99.90;;;;;;4902643;29;20135;-95
2024/01/16 07:38:29;;;;;;;11.13;3.23;;;-1.10;99.90;;;;;;4898755;29;20064;-95
2024/01/16 07:41:00;;;;;;;16.13;3.57;;;-1.50;99.90;;;;;;4898615;29;20084;-93
2024/01/16 07:43:32;;;;;;;11.93;3.60;;;1.40;99.90;;;;;;4898225;29;20136;-88
2024/01/16 07:46:04;;;;;;;13.30;3.63;;;-1.20;99.90;;;;;;4897142;29;20528;-88
2024/01/16 07:48:29;;;;;;;11.53;3.47;;;-1.00;99.90;;;;;;4897945;29;20056;-90
2024/01/16 07:50:55;;;;;;;11.20;3.03;;;-1.00;99.90;;;;;;4897397;29;20193;-91
2024/01/16 07:53:21;;;;;;;12.30;3.57;;;-1.00;99.90;;;;;;4897183;29;20055;-89
2024/01/16 07:55:46;;;;;;;16.57;3.67;;;-1.00;99.90;;;;;;4897339;29;20453;-88
2024/01/16 07:58:13;;;;;;;12.30;3.30;;;-0.90;99.90;;;;;;4897312;29;20063;-88
2024/01/16 08:00:39;;;;;;;12.77;3.50;;;-0.90;99.90;;;;;;4896785;29;20053;-87
2024/01/16 08:03:08;;;;;;;12.27;3.90;;;-0.90;99.90;;;;;;4896961;29;20056;-88
2024/01/16 08:05:33;;;;;;;15.00;7.10;;;-1.00;99.90;;;;;;4896502;29;20406;-87
2024/01/16 08:07:59;;;;;;;12.60;6.00;;;-0.90;99.90;;;;;;4896876;29;20044;-88
2024/01/16 08:10:25;;;;;;;11.63;5.27;;;-0.90;99.90;;;;;;4896980;29;20052;-87
2024/01/16 08:12:50;;;;;;;11.63;4.40;;;-1.00;99.90;;;;;;4896478;29;20350;-88
2024/01/16 08:15:16;;;;;;;10.77;4.20;;;-0.90;99.90;;;;;;4896619;29;20140;-88
2024/01/16 08:17:42;;;;;;;15.93;5.50;;;-1.00;99.90;;;;;;4897212;29;20063;-87
2024/01/16 08:20:12;;;;;;;11.57;4.50;;;-0.90;99.90;;;;;;4896242;29;20052;-87
2024/01/16 08:22:38;;;;;;;13.63;5.57;;;-0.80;99.90;;;;;;4897360;29;20108;-84
2024/01/16 08:25:08;;;;;;;12.97;5.63;;;-0.80;99.90;;;;;;4896769;29;20040;-84
2024/01/16 08:27:33;;;;;;;13.63;5.43;;;-0.80;99.90;;;;;;4896144;29;20044;-91
2024/01/16 08:29:59;;;;;;;14.77;5.30;;;-0.70;99.90;;;;;;4896829;29;20413;-88
2024/01/16 08:32:25;;;;;;;12.47;4.57;;;-0.70;99.90;;;;;;4896389;29;20049;-87
2024/01/16 08:34:51;;;;;;;11.87;4.57;;;-0.60;99.90;;;;;;4895143;29;20052;-87
2024/01/16 08:37:17;;;;;;;11.03;3.57;;;-0.60;99.90;;;;;;4896390;29;20093;-88
2024/01/16 08:39:43;;;;;;;13.33;4.30;;;-0.50;99.90;;;;;;4896401;29;20386;-88
2024/01/16 08:42:11;;;;;;;14.60;4.77;;;-0.50;99.90;;;;;;4895006;29;20071;-87
2024/01/16 08:44:39;;;;;;;11.57;4.20;;;-0.50;99.90;;;;;;4880858;29;20049;-87
2024/01/16 08:47:05;;;;;;;12.30;4.47;;;-0.50;99.90;;;;;;4896000;29;20044;-87
2024/01/16 08:49:32;;;;;;;12.60;4.60;;;-0.40;99.90;;;;;;4895801;29;20052;-87
2024/01/16 08:51:58;;;;;;;13.83;4.40;;;-0.40;99.90;;;;;;4896303;29;20063;-87
2024/01/16 08:54:25;;;;;;;15.63;4.87;;;-0.40;99.90;;;;;;4896811;29;20072;-88
2024/01/16 08:56:51;;;;;;;13.33;4.23;;;-0.30;99.90;;;;;;4895853;29;20040;-87
2024/01/16 08:59:16;;;;;;;13.20;4.57;;;-0.30;99.90;;;;;;4896706;29;20056;-86
2024/01/16 09:01:42;;;;;;;16.37;5.03;;;-0.20;99.90;;;;;;4896220;29;20045;-87
2024/01/16 09:04:08;;;;;;;14.93;5.17;;;-0.10;99.90;;;;;;4895133;29;20481;-89
2024/01/16 09:06:34;;;;;;;17.20;5.30;;;-0.10;99.90;;;;;;4893207;29;20037;-88
2024/01/16 09:08:59;;;;;;;13.57;5.20;;;0.00;99.90;;;;;;4862858;29;20049;-90
2024/01/16 09:11:25;;;;;;;15.13;5.33;;;0.00;99.90;;;;;;4887589;29;20127;-89
2024/01/16 09:13:51;;;;;;;14.93;5.10;;;0.80;99.90;;;;;;4896291;29;20044;-88
2024/01/16 09:16:17;;;;;;;16.43;5.93;;;-0.10;99.90;;;;;;4894612;29;20493;-91
2024/01/16 09:18:42;;;;;;;13.47;5.47;;;0.00;99.90;;;;;;4895622;29;20040;-88
2024/01/16 09:21:08;;;;;;;16.43;5.90;;;0.00;99.90;;;;;;4895128;29;20478;-89
2024/01/16 09:23:34;;;;;;;15.73;5.53;;;0.50;99.90;;;;;;4895102;29;20055;-90
2024/01/16 09:26:00;;;;;;;15.13;5.63;;;0.10;99.90;;;;;;4895655;29;20084;-90
2024/01/16 09:28:28;;;;;;;18.97;6.00;;;0.00;99.90;;;;;;4895658;29;20116;-89
2024/01/16 09:30:55;;;;;;;17.90;6.53;;;0.10;99.90;;;;;;4894651;29;20052;-90
2024/01/16 09:33:22;;;;;;;17.10;5.83;;;0.10;99.90;;;;;;4895568;29;20401;-90
2024/01/16 09:35:48;;;;;;;14.70;6.87;;;0.10;99.90;;;;;;4895393;29;20064;-89
2024/01/16 09:38:13;;;;;;;17.00;5.93;;;0.10;99.90;;;;;;4894422;29;20048;-89
2024/01/16 09:40:39;;;;;;;17.10;7.30;;;0.10;99.90;;;;;;4895659;29;20512;-89
2024/01/16 09:43:08;;;;;;;17.50;6.83;;;0.10;99.90;;;;;;4895322;29;20879;-89
2024/01/16 09:45:39;;;;;;;17.57;7.97;;;0.10;99.90;;;;;;4895287;29;20401;-90
2024/01/16 09:48:05;;;;;;;17.93;7.30;;;0.20;99.90;;;;;;4895558;29;20517;-90
2024/01/16 09:50:31;;;;;;;21.77;8.00;;;0.20;99.90;;;;;;4895201;29;20048;-89
2024/01/16 09:52:58;;;;;;;18.87;7.73;;;0.30;99.90;;;;;;4894361;29;20520;-89
2024/01/16 09:55:24;;;;;;;19.77;9.30;;;0.30;99.90;;;;;;4895679;29;20377;-90
2024/01/16 09:57:53;;;;;;;24.77;8.90;;;0.30;99.90;;;;;;4895952;29;20059;-92
2024/01/16 10:00:19;;;;;;;16.67;7.27;;;0.30;99.90;;;;;;4894719;29;20056;-91
2024/01/16 10:02:46;;;;;;;20.43;8.97;;;0.40;99.90;;;;;;4879702;29;20131;-92
2024/01/16 10:05:13;;;;;;;23.10;8.87;;;0.40;99.90;;;;;;4893224;29;20048;-90
2024/01/16 10:07:40;;;;;;;16.47;6.23;;;0.40;99.90;;;;;;4895537;29;20067;-90
2024/01/16 10:10:06;;;;;;;16.03;5.83;;;0.50;99.90;;;;;;4894848;29;20055;-91
2024/01/16 10:12:33;;;;;;;15.57;6.47;;;0.50;99.90;;;;;;4894674;29;20585;-91
2024/01/16 10:14:59;;;;;;;14.30;6.27;;;0.50;99.90;;;;;;4897705;29;20466;-90
2024/01/16 10:17:42;;;;;;;14.90;5.90;;;0.50;99.90;;;;;;4898696;29;20040;-91
2024/01/16 10:20:13;;;;;;;13.23;5.60;;;0.50;99.90;;;;;;4885676;29;20512;-91
2024/01/16 10:22:40;;;;;;;15.27;6.50;;;0.50;99.90;;;;;;4883834;29;20052;-92
2024/01/16 10:25:16;;;;;;;14.67;6.10;;;0.50;99.90;;;;;;4899399;29;20044;-93
2024/01/16 10:27:42;;;;;;;16.43;5.97;;;0.50;99.90;;;;;;4899971;29;20135;-94
2024/01/16 10:30:10;;;;;;;15.73;6.63;;;0.50;99.90;;;;;;4899528;29;20413;-94
2024/01/16 10:32:37;;;;;;;15.33;5.30;;;0.50;99.90;;;;;;4887395;29;20553;-94
2024/01/16 10:35:10;;;;;;;13.53;5.90;;;0.50;99.90;;;;;;4899161;29;20055;-93
2024/01/16 10:37:53;;;;;;;14.98;6.25;;;0.50;99.90;;;;;;4899231;29;20064;-93
2024/01/16 10:40:26;;;;;;;12.67;5.77;;;0.50;99.90;;;;;;4899039;29;20449;-94
2024/01/16 10:43:05;;;;;;;14.38;5.70;;;0.50;99.90;;;;;;4894490;29;20097;-93
2024/01/16 10:45:32;;;;;;;14.47;5.87;;;0.50;99.90;;;;;;4892637;29;20052;-92
2024/01/16 10:48:05;;;;;;;13.63;5.30;;;0.50;99.90;;;;;;4870791;29;20052;-94
2024/01/16 10:50:32;;;;;;;10.95;4.80;;;0.50;99.90;;;;;;4899663;29;20059;-93
2024/01/16 10:53:02;;;;;;;12.17;5.20;;;0.60;99.90;;;;;;4896669;29;20113;-93
2024/01/16 10:55:30;;;;;;;13.23;5.40;;;0.70;99.90;;;;;;4888961;29;20060;-91
2024/01/16 10:57:56;;;;;;;10.47;4.80;;;0.70;99.90;;;;;;4906966;29;20075;-93
2024/01/16 11:00:24;;;;;;;12.87;4.80;;;0.70;99.90;;;;;;4903553;29;20057;-92
2024/01/16 11:02:59;;;;;;;12.47;5.40;;;0.80;99.90;;;;;;4899042;29;20512;-86
2024/01/16 11:05:26;;;;;;;11.53;4.60;;;0.80;99.90;;;;;;4882403;29;20044;-89
2024/01/16 11:07:55;;;;;;;11.00;4.30;;;0.80;99.90;;;;;;4897922;29;20071;-89
2024/01/16 11:10:21;;;;;;;10.53;4.27;;;0.80;99.90;;;;;;4896273;29;20084;-88
2024/01/16 11:12:47;;;;;;;10.93;4.57;;;1.60;99.90;;;;;;4897862;29;20397;-88
2024/01/16 11:15:14;;;;;;;10.63;3.80;;;0.80;99.90;;;;;;4896720;29;20142;-86
2024/01/16 11:17:43;;;;;;;10.50;4.10;;;0.80;99.90;;;;;;4899409;29;20058;-86
2024/01/16 11:20:11;;;;;;;10.40;4.03;;;0.80;99.90;;;;;;4898892;29;20052;-89
2024/01/16 11:22:39;;;;;;;13.90;4.90;;;0.80;99.90;;;;;;4898494;29;20434;-88
2024/01/16 11:25:16;;;;;;;14.73;5.23;;;0.80;99.90;;;;;;4898473;29;20145;-87
2024/01/16 11:27:43;;;;;;;13.07;4.70;;;0.80;99.90;;;;;;4897264;29;20047;-87
2024/01/16 11:30:11;;;;;;;28.23;9.10;;;1.60;99.90;;;;;;4883942;29;20104;-88
2024/01/16 11:32:42;;;;;;;31.53;12.03;;;0.70;99.90;;;;;;4897805;29;20417;-87
2024/01/16 11:35:09;;;;;;;22.93;7.63;;;0.70;99.90;;;;;;4897206;29;20568;-88
2024/01/16 11:37:37;;;;;;;78.33;30.70;;;0.80;99.90;;;;;;4896840;29;20096;-88
2024/01/16 11:40:21;;;;;;;99.63;40.43;;;0.70;99.90;;;;;;4896900;29;20055;-87
2024/01/16 11:42:48;;;;;;;41.97;18.38;;;1.70;99.90;;;;;;4897364;29;20055;-88
2024/01/16 11:45:47;;;;;;;59.97;25.23;;;0.70;99.90;;;;;;4895996;29;20057;-87
2024/01/16 11:48:17;;;;;;;38.43;16.53;;;0.70;99.90;;;;;;4896670;29;20083;-87
2024/01/16 11:50:43;;;;;;;30.97;12.87;;;0.80;99.90;;;;;;4896481;29;20498;-87
2024/01/16 11:53:09;;;;;;;19.13;8.20;;;0.80;99.90;;;;;;4897357;29;20135;-88
2024/01/16 11:55:53;;;;;;;21.17;8.67;;;0.80;99.90;;;;;;4896904;29;20052;-87
2024/01/16 11:58:57;;;;;;;87.83;37.80;;;0.80;99.90;;;;;;4896313;29;20204;-88
2024/01/16 12:01:22;;;;;;;52.37;26.97;;;0.80;99.90;;;;;;4897226;29;20457;-88
2024/01/16 12:04:07;;;;;;;13.30;4.73;;;0.80;99.90;;;;;;4897586;29;20052;-88
2024/01/16 12:06:40;;;;;;;34.40;21.33;;;0.70;99.90;;;;;;4896485;29;20041;-88
2024/01/16 12:09:17;;;;;;;19.70;8.70;;;0.70;99.90;;;;;;4896914;29;20167;-87
2024/01/16 12:11:45;;;;;;;22.53;12.07;;;0.70;99.90;;;;;;4896410;29;20083;-90
2024/01/16 12:14:12;;;;;;;41.97;21.13;;;0.70;99.90;;;;;;4881313;29;20045;-88
2024/01/16 12:16:38;;;;;;;17.17;8.53;;;0.70;99.90;;;;;;4896857;29;20052;-88
2024/01/16 12:19:08;;;;;;;15.43;7.70;;;0.70;99.90;;;;;;4895904;29;20048;-85
2024/01/16 12:21:40;;;;;;;16.80;6.80;;;0.70;99.90;;;;;;4896980;29;20044;-84
2024/01/16 12:24:06;;;;;;;15.37;6.33;;;0.80;99.90;;;;;;4896562;29;20056;-83
2024/01/16 12:26:32;;;;;;;13.27;6.33;;;0.80;99.90;;;;;;4896321;29;20056;-86
2024/01/16 12:28:58;;;;;;;17.67;6.60;;;0.70;99.90;;;;;;4896332;29;20048;-87
2024/01/16 12:31:24;;;;;;;17.50;8.03;;;0.80;99.90;;;;;;4896751;29;20072;-87
2024/01/16 12:33:54;;;;;;;16.50;7.20;;;0.70;99.90;;;;;;4896333;29;20104;-86
2024/01/16 12:36:20;;;;;;;21.67;9.57;;;0.70;99.90;;;;;;4896630;29;20055;-88
2024/01/16 12:38:55;;;;;;;17.83;8.40;;;0.80;99.90;;;;;;4896640;29;20061;-85
2024/01/16 12:41:21;;;;;;;15.87;7.20;;;0.80;99.90;;;;;;4896038;29;20188;-85
2024/01/16 12:43:50;;;;;;;18.47;8.10;;;0.80;99.90;;;;;;4896514;29;20525;-84
2024/01/16 12:46:16;;;;;;;20.30;7.43;;;0.70;99.90;;;;;;4896182;29;20056;-84
2024/01/16 12:48:42;;;;;;;19.13;8.33;;;0.70;99.90;;;;;;4895795;29;20044;-84
2024/01/16 12:51:09;;;;;;;18.20;7.97;;;2.00;99.90;;;;;;4896411;29;20051;-88
2024/01/16 12:53:39;;;;;;;17.60;8.40;;;0.70;99.90;;;;;;4896639;29;20442;-85
2024/01/16 12:56:05;;;;;;;19.30;7.80;;;0.70;99.90;;;;;;4895004;29;20049;-86
2024/01/16 12:58:35;;;;;;;15.90;8.00;;;0.70;99.90;;;;;;4881332;29;20128;-86
2024/01/16 13:01:21;;;;;;;17.03;8.07;;;0.80;99.90;;;;;;4895128;29;20478;-86
2024/01/16 13:03:47;;;;;;;19.43;8.27;;;0.80;99.90;;;;;;4895710;29;20087;-86
2024/01/16 13:06:21;;;;;;;20.23;7.70;;;2.20;99.90;;;;;;4895726;29;20087;-85
2024/01/16 13:08:50;;;;;;;17.10;7.78;;;0.80;99.90;;;;;;4879931;29;20513;-86
2024/01/16 13:11:19;;;;;;;17.40;7.50;;;0.80;99.90;;;;;;4895518;29;20511;-85